createdAt,value
2023-02-04T00:00:29.394Z,4.70
2023-02-04T00:02:58.120Z,4.60
2023-02-04T00:05:27.952Z,4.50
2023-02-04T00:07:56.209Z,4.50
2023-02-04T00:10:24.456Z,4.40
2023-02-04T00:12:52.989Z,4.40
2023-02-04T00:15:21.465Z,4.30
2023-02-04T00:17:49.801Z,4.30
2023-02-04T00:20:21.130Z,4.30
2023-02-04T00:22:51.405Z,4.30
2023-02-04T00:25:20.018Z,4.20
2023-02-04T00:27:48.648Z,4.10
2023-02-04T00:30:17.003Z,4.10
2023-02-04T00:32:45.213Z,4.20
2023-02-04T00:35:14.326Z,4.10
2023-02-04T00:37:42.526Z,4.00
2023-02-04T00:40:14.238Z,3.90
2023-02-04T00:42:42.432Z,4.00
2023-02-04T00:45:11.377Z,4.00
2023-02-04T00:47:40.441Z,3.90
2023-02-04T00:50:09.068Z,4.10
2023-02-04T00:52:37.467Z,4.10
2023-02-04T00:55:07.995Z,4.20
2023-02-04T00:57:37.707Z,4.20
2023-02-04T01:00:07.119Z,4.40
2023-02-04T01:02:35.404Z,4.40
2023-02-04T01:05:03.624Z,4.30
2023-02-04T01:07:32.076Z,4.30
2023-02-04T01:10:00.234Z,4.30
2023-02-04T01:12:28.767Z,4.40
2023-02-04T01:14:58.890Z,4.40
2023-02-04T01:17:27.658Z,4.40
2023-02-04T01:19:57.007Z,4.50
2023-02-04T01:22:25.192Z,4.60
2023-02-04T01:24:53.772Z,4.50
2023-02-04T01:27:22.047Z,4.50
2023-02-04T01:29:50.725Z,4.40
2023-02-04T01:32:20.844Z,4.50
2023-02-04T01:34:49.038Z,4.60
2023-02-04T01:37:17.899Z,4.50
2023-02-04T01:39:46.080Z,4.50
2023-02-04T01:42:15.113Z,4.60
2023-02-04T01:44:43.554Z,4.60
2023-02-04T01:47:12.518Z,4.50
2023-02-04T01:49:42.253Z,4.50
2023-02-04T01:52:12.318Z,4.60
2023-02-04T01:54:40.605Z,4.40
2023-02-04T01:57:14.652Z,4.40
2023-02-04T01:59:45.292Z,4.40
2023-02-04T02:02:42.453Z,4.40
2023-02-04T02:05:16.037Z,4.30
2023-02-04T02:07:44.644Z,4.30
2023-02-04T02:10:14.514Z,4.30
2023-02-04T02:12:43.834Z,4.30
2023-02-04T02:15:13.324Z,4.20
2023-02-04T02:17:42.173Z,4.10
2023-02-04T02:20:15.877Z,4.20
2023-02-04T02:22:53.590Z,4.10
2023-02-04T02:25:23.157Z,4.10
2023-02-04T02:27:57.962Z,4.20
2023-02-04T02:30:29.435Z,4.20
2023-02-04T02:32:58.422Z,4.10
2023-02-04T02:35:26.582Z,4.10
2023-02-04T02:37:54.786Z,4.10
2023-02-04T02:40:24.676Z,3.90
2023-02-04T02:42:55.127Z,3.90
2023-02-04T02:45:26.647Z,3.70
2023-02-04T02:47:55.744Z,3.70
2023-02-04T02:50:26.989Z,3.70
2023-02-04T02:52:55.743Z,3.70
2023-02-04T02:55:27.674Z,3.60
2023-02-04T02:57:57.618Z,3.70
2023-02-04T03:00:28.432Z,3.70
2023-02-04T03:03:01.430Z,3.70
2023-02-04T03:05:31.503Z,3.70
2023-02-04T03:07:59.934Z,3.80
2023-02-04T03:10:30.457Z,3.90
2023-02-04T03:13:00.623Z,3.80
2023-02-04T03:15:29.519Z,3.80
2023-02-04T03:17:58.002Z,3.80
2023-02-04T03:20:28.499Z,3.80
2023-02-04T03:22:57.856Z,3.70
2023-02-04T03:25:28.266Z,3.70
2023-02-04T03:28:01.516Z,3.70
2023-02-04T03:30:30.006Z,3.70
2023-02-04T03:32:59.193Z,3.70
2023-02-04T03:35:27.470Z,3.70
2023-02-04T03:37:55.577Z,3.70
2023-02-04T03:40:23.738Z,3.80
2023-02-04T03:42:51.874Z,3.90
2023-02-04T03:45:21.370Z,3.90
2023-02-04T03:47:49.508Z,3.80
2023-02-04T03:50:19.806Z,3.80
2023-02-04T03:52:48.980Z,3.70
2023-02-04T03:55:17.612Z,3.80
2023-02-04T03:57:45.709Z,3.80
2023-02-04T04:00:15.181Z,3.90
2023-02-04T04:02:45.077Z,3.80
2023-02-04T04:05:13.489Z,3.80
2023-02-04T04:07:41.806Z,3.90
2023-02-04T04:10:10.515Z,3.80
2023-02-04T04:12:39.033Z,3.80
2023-02-04T04:15:10.706Z,3.80
2023-02-04T04:17:38.853Z,3.80
2023-02-04T04:20:09.555Z,3.60
2023-02-04T04:22:37.747Z,3.70
2023-02-04T04:25:06.830Z,3.70
2023-02-04T04:27:34.927Z,3.60
2023-02-04T04:30:03.227Z,3.50
2023-02-04T04:32:31.350Z,3.30
2023-02-04T04:34:59.475Z,2.90
2023-02-04T04:37:29.475Z,2.70
2023-02-04T04:39:57.592Z,2.60
2023-02-04T04:42:25.710Z,2.50
2023-02-04T04:44:53.816Z,2.50
2023-02-04T04:47:21.996Z,2.50
2023-02-04T04:49:50.231Z,2.20
2023-02-04T04:52:18.733Z,2.30
2023-02-04T04:54:48.365Z,2.10
2023-02-04T04:57:16.442Z,2.00
2023-02-04T04:59:44.574Z,2.00
2023-02-04T05:02:12.730Z,1.90
2023-02-04T05:04:40.933Z,2.00
2023-02-04T05:07:11.848Z,2.00
2023-02-04T05:09:40.283Z,1.90
2023-02-04T05:12:09.831Z,1.90
2023-02-04T05:14:38.488Z,1.80
2023-02-04T05:17:06.874Z,1.90
2023-02-04T05:19:35.196Z,2.00
2023-02-04T05:22:03.420Z,2.00
2023-02-04T05:24:31.640Z,2.10
2023-02-04T05:26:59.902Z,2.10
2023-02-04T05:29:29.797Z,2.10
2023-02-04T05:31:57.966Z,2.20
2023-02-04T05:34:26.411Z,2.20
2023-02-04T05:36:55.572Z,2.20
2023-02-04T05:39:24.088Z,2.10
2023-02-04T05:41:52.194Z,2.10
2023-02-04T05:44:20.355Z,2.00
2023-02-04T05:46:50.349Z,2.10
2023-02-04T05:49:18.553Z,2.30
2023-02-04T05:51:46.889Z,2.30
2023-02-04T05:54:19.356Z,2.30
2023-02-04T05:56:47.992Z,2.30
2023-02-04T05:59:16.314Z,2.10
2023-02-04T06:01:44.820Z,2.20
2023-02-04T06:04:15.436Z,2.20
2023-02-04T06:06:44.318Z,2.30
2023-02-04T06:09:12.785Z,2.30
2023-02-04T06:11:41.071Z,2.40
2023-02-04T06:14:10.794Z,2.40
2023-02-04T06:16:39.197Z,2.30
2023-02-04T06:19:10.736Z,2.40
2023-02-04T06:21:40.418Z,2.20
2023-02-04T06:24:11.451Z,1.90
2023-02-04T06:26:39.754Z,2.10
2023-02-04T06:29:08.311Z,2.20
2023-02-04T06:31:38.446Z,2.30
2023-02-04T06:34:06.801Z,2.30
2023-02-04T06:36:34.919Z,2.20
2023-02-04T06:39:04.670Z,2.30
2023-02-04T06:41:33.230Z,2.30
2023-02-04T06:44:01.330Z,2.20
2023-02-04T06:46:32.744Z,2.10
2023-02-04T06:49:01.074Z,2.00
2023-02-04T06:51:32.678Z,1.90
2023-02-04T06:54:00.844Z,1.70
2023-02-04T06:56:30.405Z,1.60
2023-02-04T06:59:03.263Z,1.60
2023-02-04T07:01:31.625Z,1.60
2023-02-04T07:03:59.773Z,1.50
2023-02-04T07:06:30.021Z,1.50
2023-02-04T07:08:58.155Z,1.40
2023-02-04T07:11:26.829Z,1.50
2023-02-04T07:13:56.396Z,1.50
2023-02-04T07:16:24.569Z,1.50
2023-02-04T07:18:55.757Z,1.70
2023-02-04T07:21:24.278Z,1.80
2023-02-04T07:23:52.416Z,1.50
2023-02-04T07:26:20.624Z,1.70
2023-02-04T07:28:49.490Z,1.70
2023-02-04T07:31:19.151Z,1.90
2023-02-04T07:33:47.388Z,1.70
2023-02-04T07:36:15.524Z,1.60
2023-02-04T07:38:43.839Z,1.80
2023-02-04T07:41:12.069Z,1.90
2023-02-04T07:43:40.344Z,1.90
2023-02-04T07:46:08.510Z,1.80
2023-02-04T07:48:38.111Z,1.80
2023-02-04T07:51:06.574Z,1.90
2023-02-04T07:53:34.779Z,2.00
2023-02-04T07:56:02.961Z,2.20
2023-02-04T07:58:31.462Z,2.20
2023-02-04T08:00:59.579Z,2.40
2023-02-04T08:03:27.867Z,2.10
2023-02-04T08:05:59.930Z,1.90
2023-02-04T08:08:28.052Z,1.90
2023-02-04T08:10:58.792Z,1.90
2023-02-04T08:13:26.998Z,2.20
2023-02-04T08:15:55.237Z,2.30
2023-02-04T08:18:25.033Z,2.60
2023-02-04T08:20:53.736Z,2.70
2023-02-04T08:23:23.478Z,2.70
2023-02-04T08:25:52.038Z,2.80
2023-02-04T08:28:20.227Z,2.80
2023-02-04T08:30:49.153Z,2.50
2023-02-04T08:33:17.275Z,2.60
2023-02-04T08:35:45.617Z,2.70
2023-02-04T08:38:13.834Z,2.70
2023-02-04T08:40:44.049Z,2.70
2023-02-04T08:43:12.688Z,2.70
2023-02-04T08:45:41.149Z,2.70
2023-02-04T08:48:09.610Z,2.60
2023-02-04T08:50:39.146Z,2.70
2023-02-04T08:53:09.963Z,2.90
2023-02-04T08:55:38.293Z,2.90
2023-02-04T08:58:07.804Z,3.10
2023-02-04T09:00:36.109Z,3.20
2023-02-04T09:03:04.456Z,3.20
2023-02-04T09:05:32.660Z,3.30
2023-02-04T09:08:00.845Z,3.50
2023-02-04T09:10:29.011Z,3.60
2023-02-04T09:12:57.619Z,3.70
2023-02-04T09:15:27.819Z,3.40
2023-02-04T09:18:04.705Z,3.60
2023-02-04T09:20:36.084Z,3.80
2023-02-04T09:23:04.253Z,3.90
2023-02-04T09:25:32.488Z,3.90
2023-02-04T09:28:00.652Z,4.00
2023-02-04T09:30:30.588Z,4.00
2023-02-04T09:33:01.194Z,3.90
2023-02-04T09:35:30.043Z,4.10
2023-02-04T09:37:58.266Z,4.10
2023-02-04T09:40:29.887Z,4.00
2023-02-04T09:43:01.098Z,3.90
2023-02-04T09:45:34.058Z,4.00
2023-02-04T09:48:10.233Z,4.00
2023-02-04T09:50:38.707Z,4.00
2023-02-04T09:53:07.939Z,3.60
2023-02-04T09:55:39.683Z,3.60
2023-02-04T09:58:16.059Z,3.50
2023-02-04T10:00:46.802Z,3.50
2023-02-04T10:03:17.690Z,3.40
2023-02-04T10:05:47.761Z,3.30
2023-02-04T10:08:18.239Z,3.10
2023-02-04T10:10:47.984Z,3.50
2023-02-04T10:13:18.854Z,3.50
2023-02-04T10:15:49.809Z,3.80
2023-02-04T10:18:22.661Z,3.70
2023-02-04T10:20:51.406Z,3.40
2023-02-04T10:23:21.590Z,3.60
2023-02-04T10:25:49.961Z,3.90
2023-02-04T10:28:18.637Z,4.00
2023-02-04T10:30:48.685Z,3.50
2023-02-04T10:33:24.719Z,3.50
2023-02-04T10:35:54.602Z,3.50
2023-02-04T10:38:23.846Z,3.40
2023-02-04T10:41:02.901Z,3.20
2023-02-04T10:43:31.171Z,3.10
2023-02-04T10:46:03.594Z,3.20
2023-02-04T10:48:40.486Z,3.40
2023-02-04T10:51:13.923Z,3.50
2023-02-04T10:53:59.690Z,3.90
2023-02-04T10:56:28.039Z,4.00
2023-02-04T10:58:56.199Z,3.90
2023-02-04T11:01:32.778Z,3.70
2023-02-04T11:04:01.210Z,3.40
2023-02-04T11:06:29.904Z,3.70
2023-02-04T11:09:00.484Z,3.70
2023-02-04T11:11:28.679Z,3.70
2023-02-04T11:14:02.263Z,3.80
2023-02-04T11:16:35.402Z,3.80
2023-02-04T11:19:05.609Z,4.00
2023-02-04T11:21:45.499Z,3.80
2023-02-04T11:24:25.994Z,3.60
2023-02-04T11:27:06.481Z,3.50
2023-02-04T11:29:38.478Z,3.60
2023-02-04T11:32:31.807Z,3.60
2023-02-04T11:35:26.071Z,3.70
2023-02-04T11:37:55.900Z,3.60
2023-02-04T11:40:31.184Z,3.60
2023-02-04T11:43:04.853Z,4.10
2023-02-04T11:45:35.273Z,4.30
2023-02-04T11:48:12.793Z,4.20
2023-02-04T11:50:41.860Z,3.90
2023-02-04T11:53:11.877Z,4.00
2023-02-04T11:55:47.591Z,4.30
2023-02-04T11:58:18.065Z,4.50
2023-02-04T12:00:46.868Z,4.10
2023-02-04T12:03:29.797Z,4.00
2023-02-04T12:06:00.190Z,4.10
2023-02-04T12:08:33.561Z,4.10
2023-02-04T12:11:05.485Z,4.60
2023-02-04T12:13:34.544Z,4.50
2023-02-04T12:16:04.563Z,4.40
2023-02-04T12:18:37.741Z,4.20
2023-02-04T12:21:06.690Z,4.30
2023-02-04T12:23:35.104Z,4.20
2023-02-04T12:26:03.363Z,4.40
2023-02-04T12:28:31.609Z,4.30
2023-02-04T12:31:00.053Z,4.00
2023-02-04T12:33:30.013Z,3.70
2023-02-04T12:35:59.696Z,3.90
2023-02-04T12:38:28.966Z,3.90
2023-02-04T12:40:57.180Z,4.00
2023-02-04T12:43:30.473Z,4.00
2023-02-04T12:45:58.694Z,4.00
2023-02-04T12:48:27.102Z,3.90
2023-02-04T12:50:55.381Z,4.10
2023-02-04T12:53:24.922Z,4.10
2023-02-04T12:55:53.580Z,4.10
2023-02-04T12:58:22.058Z,4.30
2023-02-04T13:00:50.652Z,4.60
2023-02-04T13:03:19.175Z,4.60
2023-02-04T13:05:47.808Z,4.60
2023-02-04T13:08:16.983Z,4.50
2023-02-04T13:10:51.780Z,4.20
2023-02-04T13:13:20.633Z,4.40
2023-02-04T13:15:49.246Z,4.40
2023-02-04T13:18:18.430Z,4.10
2023-02-04T13:20:47.167Z,4.30
2023-02-04T13:23:16.461Z,4.20
2023-02-04T13:25:49.183Z,4.50
2023-02-04T13:28:18.817Z,4.60
2023-02-04T13:30:49.980Z,4.60
2023-02-04T13:33:18.709Z,4.50
2023-02-04T13:35:47.315Z,4.40
2023-02-04T13:38:15.472Z,4.80
2023-02-04T13:40:46.319Z,4.90
2023-02-04T13:43:16.161Z,5.20
2023-02-04T13:45:47.759Z,5.00
2023-02-04T13:48:16.744Z,4.90
2023-02-04T13:50:45.010Z,4.40
2023-02-04T13:53:13.357Z,4.40
2023-02-04T13:55:42.204Z,4.50
2023-02-04T13:58:10.687Z,4.60
2023-02-04T14:00:40.274Z,4.70
2023-02-04T14:03:09.245Z,4.50
2023-02-04T14:05:37.414Z,4.60
2023-02-04T14:08:05.599Z,4.50
2023-02-04T14:10:34.106Z,4.30
2023-02-04T14:13:02.937Z,4.30
2023-02-04T14:15:34.713Z,4.10
2023-02-04T14:18:04.605Z,3.70
2023-02-04T14:20:33.256Z,3.60
2023-02-04T14:23:02.109Z,3.60
2023-02-04T14:25:30.256Z,3.60
2023-02-04T14:28:00.181Z,3.50
2023-02-04T14:30:30.169Z,3.50
2023-02-04T14:32:59.012Z,3.40
2023-02-04T14:35:30.197Z,3.30
2023-02-04T14:37:58.843Z,3.10
2023-02-04T14:40:27.390Z,3.20
2023-02-04T14:42:55.579Z,3.20
2023-02-04T14:45:23.680Z,3.30
2023-02-04T14:47:52.717Z,3.40
2023-02-04T14:50:28.083Z,3.40
2023-02-04T14:52:58.401Z,3.30
2023-02-04T14:55:27.375Z,3.20
2023-02-04T14:57:55.904Z,3.20
2023-02-04T15:00:24.457Z,3.20
2023-02-04T15:02:53.235Z,3.20
2023-02-04T15:05:21.505Z,3.10
2023-02-04T15:07:50.016Z,3.20
2023-02-04T15:10:20.094Z,3.40
2023-02-04T15:12:50.692Z,3.40
2023-02-04T15:15:18.964Z,3.40
2023-02-04T15:17:47.769Z,3.30
2023-02-04T15:20:16.046Z,3.30
2023-02-04T15:22:46.352Z,3.20
2023-02-04T15:25:14.963Z,3.30
2023-02-04T15:27:44.548Z,3.20
2023-02-04T15:30:13.079Z,3.10
2023-02-04T15:32:42.925Z,3.00
2023-02-04T15:35:11.265Z,3.00
2023-02-04T15:37:40.113Z,3.00
2023-02-04T15:40:09.725Z,3.00
2023-02-04T15:42:41.239Z,3.00
2023-02-04T15:45:12.799Z,3.00
2023-02-04T15:47:40.953Z,2.90
2023-02-04T15:50:11.089Z,3.00
2023-02-04T15:52:41.000Z,2.90
2023-02-04T15:55:12.216Z,2.90
2023-02-04T15:57:41.115Z,3.10
2023-02-04T16:00:12.541Z,3.10
2023-02-04T16:02:40.799Z,3.00
2023-02-04T16:05:10.056Z,3.00
2023-02-04T16:07:38.429Z,3.00
2023-02-04T16:10:07.211Z,3.00
2023-02-04T16:12:35.774Z,2.80
2023-02-04T16:15:04.472Z,2.60
2023-02-04T16:17:34.485Z,2.50
2023-02-04T16:20:03.881Z,2.30
2023-02-04T16:22:34.794Z,2.20
2023-02-04T16:25:04.515Z,2.10
2023-02-04T16:27:36.248Z,2.00
2023-02-04T16:30:08.261Z,1.90
2023-02-04T16:32:38.115Z,1.90
2023-02-04T16:35:07.075Z,1.80
2023-02-04T16:37:36.176Z,2.00
2023-02-04T16:40:07.140Z,1.90
2023-02-04T16:42:35.429Z,2.00
2023-02-04T16:45:03.794Z,2.00
2023-02-04T16:47:31.994Z,2.00
2023-02-04T16:50:01.654Z,2.20
2023-02-04T16:52:31.030Z,2.20
2023-02-04T16:55:00.039Z,2.30
2023-02-04T16:57:28.406Z,2.10
2023-02-04T16:59:56.812Z,1.90
2023-02-04T17:02:25.189Z,1.80
2023-02-04T17:04:53.521Z,1.80
2023-02-04T17:07:23.039Z,1.90
2023-02-04T17:09:51.368Z,1.90
2023-02-04T17:12:20.134Z,2.00
2023-02-04T17:14:48.644Z,1.90
2023-02-04T17:17:17.917Z,2.00
2023-02-04T17:19:47.579Z,2.00
2023-02-04T17:22:16.273Z,1.80
2023-02-04T17:24:46.037Z,1.80
2023-02-04T17:27:14.832Z,1.70
2023-02-04T17:29:42.998Z,1.50
2023-02-04T17:32:12.466Z,1.30
2023-02-04T17:34:40.819Z,1.30
2023-02-04T17:37:11.034Z,1.40
2023-02-04T17:39:39.375Z,1.40
2023-02-04T17:42:09.125Z,1.40
2023-02-04T17:44:37.238Z,1.50
2023-02-04T17:47:05.680Z,1.50
2023-02-04T17:49:34.534Z,1.40
2023-02-04T17:52:06.762Z,1.30
2023-02-04T17:54:35.248Z,1.20
2023-02-04T17:57:20.656Z,1.20
2023-02-04T17:59:49.718Z,1.00
2023-02-04T18:02:26.099Z,0.90
2023-02-04T18:04:56.391Z,0.80
2023-02-04T18:07:27.476Z,0.80
2023-02-04T18:10:08.847Z,1.00
2023-02-04T18:12:38.362Z,1.10
2023-02-04T18:15:28.771Z,0.90
2023-02-04T18:18:07.458Z,0.70
2023-02-04T18:20:35.809Z,0.80
2023-02-04T18:23:05.400Z,0.90
2023-02-04T18:25:34.769Z,0.80
2023-02-04T18:28:14.419Z,0.80
2023-02-04T18:30:42.920Z,0.90
2023-02-04T18:33:20.545Z,1.00
2023-02-04T18:35:51.748Z,1.00
2023-02-04T18:38:27.098Z,1.00
2023-02-04T18:41:03.405Z,0.90
2023-02-04T18:43:38.040Z,0.90
2023-02-04T18:46:23.001Z,0.70
2023-02-04T18:49:01.920Z,0.70
2023-02-04T18:51:32.917Z,0.60
2023-02-04T18:54:17.833Z,0.60
2023-02-04T18:56:46.061Z,0.50
2023-02-04T18:59:18.444Z,0.50
2023-02-04T19:01:48.393Z,0.30
2023-02-04T19:04:23.789Z,0.20
2023-02-04T19:06:54.549Z,0.10
2023-02-04T19:09:27.684Z,0.10
2023-02-04T19:11:57.072Z,0.10
2023-02-04T19:14:37.661Z,0.10
2023-02-04T19:17:25.606Z,0.10
2023-02-04T19:19:57.863Z,0.20
2023-02-04T19:22:36.798Z,0.10
2023-02-04T19:25:29.617Z,0.00
2023-02-04T19:27:59.685Z,-0.10
2023-02-04T19:30:57.073Z,-0.10
2023-02-04T19:33:27.900Z,0.10
2023-02-04T19:36:03.298Z,0.10
2023-02-04T19:38:43.095Z,0.10
2023-02-04T19:41:42.253Z,0.10
2023-02-04T19:44:36.456Z,0.30
2023-02-04T19:50:21.791Z,0.20
2023-02-04T19:52:52.926Z,0.30
2023-02-04T19:55:30.684Z,0.30
2023-02-04T19:58:01.423Z,0.30
2023-02-04T20:00:46.959Z,0.30
2023-02-04T20:03:31.068Z,0.40
2023-02-04T20:06:08.172Z,0.40
2023-02-04T20:08:47.615Z,0.40
2023-02-04T20:11:57.910Z,0.40
2023-02-04T20:14:47.945Z,0.40
2023-02-04T20:17:48.321Z,0.40
2023-02-04T20:20:26.256Z,0.60
2023-02-04T20:22:59.475Z,0.60
2023-02-04T20:25:46.976Z,0.50
2023-02-04T20:28:26.576Z,0.60
2023-02-04T20:30:56.356Z,0.70
2023-02-04T20:33:29.242Z,0.80
2023-02-04T20:36:36.082Z,0.80
2023-02-04T20:39:35.681Z,0.80
2023-02-04T20:42:38.918Z,0.80
2023-02-04T20:45:25.535Z,0.90
2023-02-04T20:47:57.866Z,1.00
2023-02-04T20:50:38.254Z,0.90
2023-02-04T20:53:37.319Z,0.90
2023-02-04T20:56:25.254Z,0.80
2023-02-04T20:58:56.369Z,1.00
2023-02-04T21:01:32.866Z,0.90
2023-02-04T21:04:11.416Z,0.80
2023-02-04T21:06:40.106Z,0.80
2023-02-04T21:09:10.379Z,0.80
2023-02-04T21:11:40.241Z,0.80
2023-02-04T21:14:08.538Z,0.60
2023-02-04T21:16:37.207Z,0.40
2023-02-04T21:19:05.649Z,0.40
2023-02-04T21:21:33.861Z,0.40
2023-02-04T21:24:02.057Z,0.30
2023-02-04T21:26:36.710Z,0.40
2023-02-04T21:29:07.124Z,0.30
2023-02-04T21:31:36.304Z,0.20
2023-02-04T21:34:04.704Z,0.10
2023-02-04T21:36:34.257Z,0.00
2023-02-04T21:39:02.499Z,0.00
2023-02-04T21:41:30.699Z,-0.10
2023-02-04T21:43:58.945Z,-0.20
2023-02-04T21:46:28.591Z,0.00
2023-02-04T21:48:57.448Z,0.00
2023-02-04T21:51:28.045Z,0.10
2023-02-04T21:53:56.639Z,0.20
2023-02-04T21:56:24.984Z,0.30
2023-02-04T21:58:56.424Z,0.30
2023-02-04T22:01:24.680Z,0.30
2023-02-04T22:03:54.324Z,0.30
2023-02-04T22:06:22.668Z,0.30
2023-02-04T22:08:51.014Z,0.20
2023-02-04T22:11:19.237Z,0.20
2023-02-04T22:13:47.362Z,0.30
2023-02-04T22:16:15.634Z,0.30
2023-02-04T22:18:47.065Z,0.20
2023-02-04T22:21:16.671Z,0.30
2023-02-04T22:23:44.887Z,0.30
2023-02-04T22:26:13.121Z,0.30
2023-02-04T22:28:41.349Z,0.30
2023-02-04T22:31:12.566Z,0.40
2023-02-04T22:33:41.157Z,0.50
2023-02-04T22:36:12.182Z,0.50
2023-02-04T22:38:41.843Z,0.60
2023-02-04T22:41:09.978Z,0.50
2023-02-04T22:43:38.406Z,0.40
2023-02-04T22:46:09.833Z,0.20
2023-02-04T22:48:38.258Z,0.10
2023-02-04T22:51:06.753Z,-0.10
2023-02-04T22:53:35.166Z,-0.10
2023-02-04T22:56:05.379Z,-0.10
2023-02-04T22:58:34.176Z,-0.20
2023-02-04T23:01:02.828Z,0.00
2023-02-04T23:03:34.219Z,0.00
2023-02-04T23:06:05.420Z,-0.10
2023-02-04T23:08:34.256Z,-0.10
2023-02-04T23:11:04.554Z,-0.20
2023-02-04T23:13:32.763Z,-0.20
2023-02-04T23:16:04.719Z,-0.10
2023-02-04T23:18:33.089Z,-0.30
2023-02-04T23:21:01.275Z,-0.40
2023-02-04T23:23:31.788Z,-0.60
2023-02-04T23:26:00.572Z,-0.60
2023-02-04T23:28:31.050Z,-0.40
2023-02-04T23:30:59.729Z,-0.50
2023-02-04T23:33:28.149Z,-0.40
2023-02-04T23:36:03.496Z,-0.50
2023-02-04T23:38:32.098Z,-0.90
2023-02-04T23:41:00.469Z,-0.80
2023-02-04T23:43:30.449Z,-0.90
2023-02-04T23:46:00.074Z,-1.00
2023-02-04T23:48:29.339Z,-0.90
2023-02-04T23:50:58.136Z,-0.80
2023-02-04T23:53:27.049Z,-0.90
2023-02-04T23:55:55.692Z,-0.90
2023-02-04T23:58:24.159Z,-0.80
